Time,TemperatureF,DewpointF,PressureIn,WindDirection,WindDirectionDegrees,WindSpeedMPH,WindSpeedGustMPH,Humidity,HourlyPrecipIn,Conditions,Clouds,dailyrainin,SoftwareType,DateUTC
2013-01-21 00:00:00,28.4,7.7,29.97,North,0,0.0,0.0,41,0.00,,---,0.00,VWS V14.01,2013-01-21 05:00:00,
2013-01-21 00:01:00,28.2,7.6,30.00,North,0,0.0,0.0,41,0.00,,---,0.00,VWS V14.01,2013-01-21 05:01:00,
2013-01-21 00:07:00,28.4,7.7,30.00,North,0,0.0,0.0,41,0.00,,---,0.00,VWS V14.01,2013-01-21 05:07:00,
2013-01-21 00:12:00,28.4,7.7,30.00,North,0,0.0,0.0,41,0.00,,---,0.00,VWS V14.01,2013-01-21 05:12:00,
2013-01-21 00:17:00,28.2,7.6,29.97,North,0,0.0,0.0,41,0.00,,---,0.00,VWS V14.01,2013-01-21 05:17:00,
2013-01-21 00:22:00,28.0,7.4,29.97,North,0,0.0,0.0,41,0.00,,---,0.00,VWS V14.01,2013-01-21 05:22:00,
2013-01-21 00:27:00,27.9,7.2,29.97,North,0,0.0,0.0,41,0.00,,---,0.00,VWS V14.01,2013-01-21 05:27:00,
2013-01-21 00:32:00,27.9,7.2,30.00,North,0,0.0,0.0,41,0.00,,---,0.00,VWS V14.01,2013-01-21 05:32:00,
2013-01-21 00:37:00,27.9,7.2,30.00,North,0,0.0,0.0,41,0.00,,---,0.00,VWS V14.01,2013-01-21 05:37:00,
2013-01-21 00:42:00,27.9,7.2,30.00,North,0,0.0,0.0,41,0.00,,---,0.00,VWS V14.01,2013-01-21 05:42:00,
2013-01-21 00:47:00,27.7,7.1,30.00,North,0,0.0,0.0,41,0.00,,---,0.00,VWS V14.01,2013-01-21 05:47:00,
2013-01-21 00:52:00,27.3,6.7,30.00,North,0,0.0,0.0,41,0.00,,---,0.00,VWS V14.01,2013-01-21 05:52:00,
2013-01-21 00:57:00,27.1,6.6,30.00,North,0,0.0,0.0,41,0.00,,---,0.00,VWS V14.01,2013-01-21 05:57:00,
2013-01-21 01:02:00,27.0,6.4,30.00,North,0,0.0,0.0,41,0.00,,---,0.00,VWS V14.01,2013-01-21 06:02:00,
2013-01-21 01:07:00,26.8,6.2,30.00,North,0,0.0,0.0,41,0.00,,---,0.00,VWS V14.01,2013-01-21 06:07:00,
2013-01-21 01:12:00,26.6,6.6,30.00,North,0,0.0,0.0,42,0.00,,---,0.00,VWS V14.01,2013-01-21 06:12:00,
2013-01-21 01:17:00,26.6,6.6,30.00,North,0,0.0,0.0,42,0.00,,---,0.00,VWS V14.01,2013-01-21 06:17:00,
2013-01-21 01:22:00,26.6,6.6,30.00,North,0,0.0,0.0,42,0.00,,---,0.00,VWS V14.01,2013-01-21 06:22:00,
2013-01-21 01:27:00,26.8,6.2,30.00,North,0,0.0,0.0,41,0.00,,---,0.00,VWS V14.01,2013-01-21 06:27:00,
2013-01-21 01:32:00,26.8,6.2,30.03,North,0,0.0,0.0,41,0.00,,---,0.00,VWS V14.01,2013-01-21 06:32:00,
2013-01-21 01:37:00,26.4,6.4,30.03,North,0,0.0,0.0,42,0.00,,---,0.00,VWS V14.01,2013-01-21 06:37:00,
2013-01-21 01:42:00,26.2,6.3,30.03,North,0,0.0,0.0,42,0.00,,---,0.00,VWS V14.01,2013-01-21 06:42:00,
2013-01-21 01:47:00,26.2,6.3,30.03,North,0,0.0,0.0,42,0.00,,---,0.00,VWS V14.01,2013-01-21 06:47:00,
2013-01-21 01:52:00,26.2,6.3,30.03,North,0,0.0,0.0,42,0.00,,---,0.00,VWS V14.01,2013-01-21 06:52:00,
2013-01-21 01:57:00,25.9,6.0,30.03,North,0,0.0,0.0,42,0.00,,---,0.00,VWS V14.01,2013-01-21 06:57:00,
2013-01-21 02:02:00,25.5,5.6,30.03,North,0,0.0,0.0,42,0.00,,---,0.00,VWS V14.01,2013-01-21 07:02:00,
2013-01-21 02:07:00,25.3,5.5,30.03,North,0,0.0,0.0,42,0.00,,---,0.00,VWS V14.01,2013-01-21 07:07:00,
2013-01-21 02:12:00,25.3,5.5,30.03,North,0,0.0,0.0,42,0.00,,---,0.00,VWS V14.01,2013-01-21 07:12:00,
2013-01-21 02:17:00,25.5,5.6,30.03,North,0,0.0,0.0,42,0.00,,---,0.00,VWS V14.01,2013-01-21 07:17:00,
2013-01-21 02:22:00,25.3,5.5,30.03,North,0,0.0,0.0,42,0.00,,---,0.00,VWS V14.01,2013-01-21 07:22:00,
2013-01-21 02:27:00,25.3,5.5,30.03,North,0,0.0,0.0,42,0.00,,---,0.00,VWS V14.01,2013-01-21 07:27:00,
2013-01-21 02:32:00,24.8,5.0,30.03,North,0,0.0,0.0,42,0.00,,---,0.00,VWS V14.01,2013-01-21 07:32:00,
2013-01-21 02:37:00,25.0,5.1,30.03,North,0,0.0,0.0,42,0.00,,---,0.00,VWS V14.01,2013-01-21 07:37:00,
2013-01-21 02:42:00,24.8,5.0,30.03,North,0,0.0,0.0,42,0.00,,---,0.00,VWS V14.01,2013-01-21 07:42:00,
2013-01-21 02:47:00,25.0,5.1,30.03,North,0,0.0,0.0,42,0.00,,---,0.00,VWS V14.01,2013-01-21 07:47:00,
2013-01-21 02:52:00,24.6,4.8,30.03,North,0,0.0,0.0,42,0.00,,---,0.00,VWS V14.01,2013-01-21 07:52:00,
2013-01-21 02:57:00,24.6,4.8,30.03,North,0,0.0,0.0,42,0.00,,---,0.00,VWS V14.01,2013-01-21 07:57:00,
2013-01-21 03:02:00,24.4,4.7,30.03,North,0,0.0,0.0,42,0.00,,---,0.00,VWS V14.01,2013-01-21 08:02:00,
2013-01-21 03:07:00,24.1,4.3,30.03,North,0,0.0,0.0,42,0.00,,---,0.00,VWS V14.01,2013-01-21 08:07:00,
2013-01-21 03:12:00,23.9,4.2,30.03,North,0,0.0,0.0,42,0.00,,---,0.00,VWS V14.01,2013-01-21 08:12:00,
2013-01-21 03:17:00,23.7,4.0,30.03,North,0,0.0,0.0,42,0.00,,---,0.00,VWS V14.01,2013-01-21 08:17:00,
2013-01-21 03:22:00,24.1,4.3,30.03,North,0,0.0,0.0,42,0.00,,---,0.00,VWS V14.01,2013-01-21 08:22:00,
2013-01-21 03:27:00,23.9,4.2,30.03,North,0,0.0,0.0,42,0.00,,---,0.00,VWS V14.01,2013-01-21 08:27:00,
2013-01-21 03:32:00,23.5,3.8,30.03,North,0,0.0,0.0,42,0.00,,---,0.00,VWS V14.01,2013-01-21 08:32:00,
2013-01-21 03:38:00,23.4,3.7,30.03,North,0,0.0,0.0,42,0.00,,---,0.00,VWS V14.01,2013-01-21 08:38:00,
2013-01-21 03:43:00,23.0,3.3,30.03,North,0,0.0,0.0,42,0.00,,---,0.00,VWS V14.01,2013-01-21 08:43:00,
2013-01-21 03:48:00,23.4,3.7,30.03,North,0,0.0,0.0,42,0.00,,---,0.00,VWS V14.01,2013-01-21 08:48:00,
2013-01-21 03:53:00,23.2,3.5,30.03,North,0,0.0,0.0,42,0.00,,---,0.00,VWS V14.01,2013-01-21 08:53:00,
2013-01-21 03:58:00,23.2,3.5,30.03,North,0,0.0,0.0,42,0.00,,---,0.00,VWS V14.01,2013-01-21 08:58:00,
2013-01-21 04:03:00,22.8,3.2,30.03,North,0,0.0,0.0,42,0.00,,---,0.00,VWS V14.01,2013-01-21 09:03:00,
2013-01-21 04:08:00,22.8,3.2,30.03,North,0,0.0,0.0,42,0.00,,---,0.00,VWS V14.01,2013-01-21 09:08:00,
2013-01-21 04:13:00,22.8,3.2,30.03,North,0,0.0,0.0,42,0.00,,---,0.00,VWS V14.01,2013-01-21 09:13:00,
2013-01-21 04:18:00,22.6,3.0,30.03,North,0,0.0,0.0,42,0.00,,---,0.00,VWS V14.01,2013-01-21 09:18:00,
2013-01-21 04:23:00,22.8,3.2,30.03,North,0,0.0,0.0,42,0.00,,---,0.00,VWS V14.01,2013-01-21 09:23:00,
2013-01-21 04:28:00,22.8,3.2,30.03,North,0,0.0,0.0,42,0.00,,---,0.00,VWS V14.01,2013-01-21 09:28:00,
2013-01-21 04:33:00,22.8,3.2,30.03,North,0,0.0,0.0,42,0.00,,---,0.00,VWS V14.01,2013-01-21 09:33:00,
2013-01-21 04:38:00,22.6,3.0,30.03,North,0,0.0,0.0,42,0.00,,---,0.00,VWS V14.01,2013-01-21 09:38:00,
2013-01-21 04:43:00,22.5,3.4,30.03,North,0,0.0,0.0,43,0.00,,---,0.00,VWS V14.01,2013-01-21 09:43:00,
2013-01-21 04:48:00,22.3,3.2,30.03,North,0,0.0,0.0,43,0.00,,---,0.00,VWS V14.01,2013-01-21 09:48:00,
2013-01-21 04:53:00,22.3,3.2,30.03,North,0,0.0,0.0,43,0.00,,---,0.00,VWS V14.01,2013-01-21 09:53:00,
2013-01-21 04:58:00,22.3,3.2,30.03,North,0,0.0,0.0,43,0.00,,---,0.00,VWS V14.01,2013-01-21 09:58:00,
2013-01-21 05:03:00,22.1,3.0,30.03,North,0,0.0,0.0,43,0.00,,---,0.00,VWS V14.01,2013-01-21 10:03:00,
2013-01-21 05:08:00,21.7,2.2,30.03,North,0,0.0,0.0,42,0.00,,---,0.00,VWS V14.01,2013-01-21 10:08:00,
2013-01-21 05:13:00,21.6,2.5,30.03,North,0,0.0,0.0,43,0.00,,---,0.00,VWS V14.01,2013-01-21 10:13:00,
2013-01-21 05:18:00,21.7,2.7,30.03,North,0,0.0,0.0,43,0.00,,---,0.00,VWS V14.01,2013-01-21 10:18:00,
2013-01-21 05:23:00,21.7,2.7,30.03,North,0,0.0,0.0,43,0.00,,---,0.00,VWS V14.01,2013-01-21 10:23:00,
2013-01-21 05:28:00,21.6,2.5,30.03,North,0,0.0,0.0,43,0.00,,---,0.00,VWS V14.01,2013-01-21 10:28:00,
2013-01-21 05:33:00,21.4,2.4,30.03,North,0,0.0,0.0,43,0.00,,---,0.00,VWS V14.01,2013-01-21 10:33:00,
2013-01-21 05:38:00,21.2,2.2,30.03,North,0,0.0,0.0,43,0.00,,---,0.00,VWS V14.01,2013-01-21 10:38:00,
2013-01-21 05:43:00,21.2,2.2,30.03,North,0,0.0,0.0,43,0.00,,---,0.00,VWS V14.01,2013-01-21 10:43:00,
2013-01-21 05:48:00,21.2,2.2,30.03,North,0,0.0,0.0,43,0.00,,---,0.00,VWS V14.01,2013-01-21 10:48:00,
2013-01-21 05:53:00,21.2,2.2,30.03,North,0,0.0,0.0,43,0.00,,---,0.00,VWS V14.01,2013-01-21 10:53:00,
2013-01-21 05:58:00,21.2,2.2,30.03,North,0,0.0,0.0,43,0.00,,---,0.00,VWS V14.01,2013-01-21 10:58:00,
2013-01-21 06:03:00,21.0,2.0,30.03,North,0,0.0,0.0,43,0.00,,---,0.00,VWS V14.01,2013-01-21 11:03:00,
2013-01-21 06:08:00,21.2,2.2,30.03,North,0,0.0,0.0,43,0.00,,---,0.00,VWS V14.01,2013-01-21 11:08:00,
2013-01-21 06:13:00,21.2,2.2,30.03,North,0,0.0,0.0,43,0.00,,---,0.00,VWS V14.01,2013-01-21 11:13:00,
2013-01-21 06:18:00,20.8,1.9,30.03,North,0,0.0,0.0,43,0.00,,---,0.00,VWS V14.01,2013-01-21 11:18:00,
2013-01-21 06:23:00,20.7,1.7,30.03,North,0,0.0,0.0,43,0.00,,---,0.00,VWS V14.01,2013-01-21 11:23:00,
2013-01-21 06:28:00,20.7,1.7,30.03,North,0,0.0,0.0,43,0.00,,---,0.00,VWS V14.01,2013-01-21 11:28:00,
2013-01-21 06:33:00,20.7,1.7,30.03,North,0,0.0,0.0,43,0.00,,---,0.00,VWS V14.01,2013-01-21 11:33:00,
2013-01-21 06:38:00,20.8,1.9,30.03,North,0,0.0,0.0,43,0.00,,---,0.00,VWS V14.01,2013-01-21 11:38:00,
2013-01-21 06:43:00,21.0,2.0,30.03,North,0,0.0,0.0,43,0.00,,---,0.00,VWS V14.01,2013-01-21 11:43:00,
2013-01-21 06:48:00,20.8,1.9,30.03,North,0,0.0,0.0,43,0.00,,---,0.00,VWS V14.01,2013-01-21 11:48:00,
2013-01-21 06:53:00,20.8,1.9,30.03,North,0,0.0,0.0,43,0.00,,---,0.00,VWS V14.01,2013-01-21 11:53:00,
2013-01-21 06:58:00,20.8,1.9,30.03,North,0,0.0,0.0,43,0.00,,---,0.00,VWS V14.01,2013-01-21 11:58:00,
2013-01-21 07:03:00,21.0,2.0,30.03,North,0,0.0,0.0,43,0.00,,---,0.00,VWS V14.01,2013-01-21 12:03:00,
2013-01-21 07:08:00,21.0,2.0,30.03,North,0,0.0,0.0,43,0.00,,---,0.00,VWS V14.01,2013-01-21 12:08:00,
2013-01-21 07:13:00,20.8,1.9,30.03,North,0,0.0,0.0,43,0.00,,---,0.00,VWS V14.01,2013-01-21 12:13:00,
2013-01-21 07:18:00,20.8,1.9,30.03,North,0,0.0,0.0,43,0.00,,---,0.00,VWS V14.01,2013-01-21 12:18:00,
2013-01-21 07:23:00,20.5,1.5,30.03,North,0,0.0,0.0,43,0.00,,---,0.00,VWS V14.01,2013-01-21 12:23:00,
2013-01-21 07:28:00,20.5,1.5,30.03,North,0,0.0,0.0,43,0.00,,---,0.00,VWS V14.01,2013-01-21 12:28:00,
2013-01-21 07:33:00,20.5,1.5,30.03,North,0,0.0,0.0,43,0.00,,---,0.00,VWS V14.01,2013-01-21 12:33:00,
2013-01-21 07:38:00,20.7,1.7,30.03,North,0,0.0,0.0,43,0.00,,---,0.00,VWS V14.01,2013-01-21 12:38:00,
2013-01-21 07:43:00,21.0,2.0,30.03,North,0,0.0,0.0,43,0.00,,---,0.00,VWS V14.01,2013-01-21 12:43:00,
2013-01-21 07:48:00,21.2,2.2,30.03,North,0,0.0,0.0,43,0.00,,---,0.00,VWS V14.01,2013-01-21 12:48:00,
2013-01-21 07:53:00,21.2,2.2,30.03,North,0,0.0,0.0,43,0.00,,---,0.00,VWS V14.01,2013-01-21 12:53:00,
2013-01-21 07:58:00,21.6,2.5,30.03,North,0,0.0,0.0,43,0.00,,---,0.00,VWS V14.01,2013-01-21 12:58:00,
2013-01-21 08:03:00,21.9,2.9,30.03,North,0,0.0,0.0,43,0.00,,---,0.00,VWS V14.01,2013-01-21 13:03:00,
2013-01-21 08:08:00,22.6,3.5,30.03,North,0,0.0,0.0,43,0.00,,---,0.00,VWS V14.01,2013-01-21 13:08:00,
2013-01-21 08:13:00,23.2,3.5,30.03,North,0,0.0,0.0,42,0.00,,---,0.00,VWS V14.01,2013-01-21 13:13:00,
2013-01-21 08:18:00,23.7,4.0,30.03,North,0,0.0,0.0,42,0.00,,---,0.00,VWS V14.01,2013-01-21 13:18:00,
2013-01-21 08:23:00,24.3,4.5,30.03,North,0,0.0,0.0,42,0.00,,---,0.00,VWS V14.01,2013-01-21 13:23:00,
2013-01-21 08:28:00,24.6,4.8,30.03,North,0,0.0,0.0,42,0.00,,---,0.00,VWS V14.01,2013-01-21 13:28:00,
2013-01-21 08:33:00,25.2,5.3,30.03,North,0,0.0,0.0,42,0.00,,---,0.00,VWS V14.01,2013-01-21 13:33:00,
2013-01-21 08:38:00,25.5,5.6,30.03,North,0,0.0,0.0,42,0.00,,---,0.00,VWS V14.01,2013-01-21 13:38:00,
2013-01-21 08:43:00,26.1,6.1,30.03,North,0,0.0,0.0,42,0.00,,---,0.00,VWS V14.01,2013-01-21 13:43:00,
2013-01-21 08:48:00,26.2,6.3,30.03,North,0,0.0,0.0,42,0.00,,---,0.00,VWS V14.01,2013-01-21 13:48:00,
2013-01-21 08:53:00,26.6,6.6,30.03,North,0,0.0,0.0,42,0.00,,---,0.00,VWS V14.01,2013-01-21 13:53:00,
2013-01-21 08:58:00,27.0,6.4,30.03,North,0,0.0,0.0,41,0.00,,---,0.00,VWS V14.01,2013-01-21 13:58:00,
2013-01-21 09:03:00,27.1,6.6,30.00,North,0,0.0,0.0,41,0.00,,---,0.00,VWS V14.01,2013-01-21 14:03:00,
2013-01-21 09:08:00,27.5,6.9,30.00,North,0,0.0,0.0,41,0.00,,---,0.00,VWS V14.01,2013-01-21 14:08:00,
2013-01-21 09:13:00,27.9,7.2,30.00,North,0,0.0,0.0,41,0.00,,---,0.00,VWS V14.01,2013-01-21 14:13:00,
2013-01-21 09:18:00,27.9,7.2,30.03,North,0,0.0,0.0,41,0.00,,---,0.00,VWS V14.01,2013-01-21 14:18:00,
2013-01-21 09:23:00,28.0,7.4,30.03,North,0,0.0,0.0,41,0.00,,---,0.00,VWS V14.01,2013-01-21 14:23:00,
2013-01-21 09:28:00,28.4,7.7,30.03,North,0,0.0,0.0,41,0.00,,---,0.00,VWS V14.01,2013-01-21 14:28:00,
2013-01-21 09:33:00,28.6,7.9,30.03,North,0,0.0,0.0,41,0.00,,---,0.00,VWS V14.01,2013-01-21 14:33:00,
2013-01-21 09:38:00,28.9,8.2,30.03,North,0,0.0,0.0,41,0.00,,---,0.00,VWS V14.01,2013-01-21 14:38:00,
2013-01-21 09:43:00,29.5,8.7,30.03,North,0,0.0,0.0,41,0.00,,---,0.00,VWS V14.01,2013-01-21 14:43:00,
2013-01-21 09:48:00,29.7,8.9,30.03,North,0,0.0,0.0,41,0.00,,---,0.00,VWS V14.01,2013-01-21 14:48:00,
2013-01-21 09:53:00,29.8,9.0,30.03,North,0,0.0,0.0,41,0.00,,---,0.00,VWS V14.01,2013-01-21 14:53:00,
2013-01-21 09:58:00,30.2,9.4,30.03,North,0,0.0,0.0,41,0.00,,---,0.00,VWS V14.01,2013-01-21 14:58:00,
2013-01-21 10:03:00,30.4,9.0,30.00,North,0,0.0,0.0,40,0.00,,---,0.00,VWS V14.01,2013-01-21 15:03:00,
2013-01-21 10:08:00,30.6,9.1,30.00,North,0,0.0,0.0,40,0.00,,---,0.00,VWS V14.01,2013-01-21 15:08:00,
2013-01-21 10:13:00,30.6,9.1,30.00,North,0,0.0,0.0,40,0.00,,---,0.00,VWS V14.01,2013-01-21 15:13:00,
2013-01-21 10:18:00,30.4,9.0,30.00,North,0,0.0,0.0,40,0.00,,---,0.00,VWS V14.01,2013-01-21 15:18:00,
2013-01-21 10:23:00,30.6,9.1,30.00,North,0,0.0,0.0,40,0.00,,---,0.00,VWS V14.01,2013-01-21 15:23:00,
2013-01-21 10:28:00,30.9,9.4,30.00,North,0,0.0,0.0,40,0.00,,---,0.00,VWS V14.01,2013-01-21 15:28:00,
2013-01-21 10:32:00,31.1,9.6,30.00,North,0,0.0,0.0,40,0.00,,---,0.00,VWS V14.01,2013-01-21 15:32:00,
2013-01-21 10:37:00,31.3,9.8,30.00,North,0,0.0,0.0,40,0.00,,---,0.00,VWS V14.01,2013-01-21 15:37:00,
2013-01-21 10:42:00,31.1,9.6,30.00,North,0,0.0,0.0,40,0.00,,---,0.00,VWS V14.01,2013-01-21 15:42:00,
2013-01-21 10:48:00,31.6,10.1,30.00,North,0,0.0,0.0,40,0.00,,---,0.00,VWS V14.01,2013-01-21 15:48:00,
2013-01-21 10:52:00,31.8,10.3,30.00,North,0,0.0,0.0,40,0.00,,---,0.00,VWS V14.01,2013-01-21 15:52:00,
2013-01-21 10:57:00,32.2,10.6,30.00,North,0,0.0,0.0,40,0.00,,---,0.00,VWS V14.01,2013-01-21 15:57:00,
2013-01-21 11:03:00,32.4,10.8,29.97,North,0,0.0,0.0,40,0.00,,---,0.00,VWS V14.01,2013-01-21 16:03:00,
2013-01-21 11:08:00,32.4,10.8,29.97,North,0,0.0,0.0,40,0.00,,---,0.00,VWS V14.01,2013-01-21 16:08:00,
2013-01-21 11:13:00,32.7,11.1,29.97,North,0,0.0,0.0,40,0.00,,---,0.00,VWS V14.01,2013-01-21 16:13:00,
2013-01-21 11:18:00,32.7,11.1,29.97,North,0,0.0,0.0,40,0.00,,---,0.00,VWS V14.01,2013-01-21 16:18:00,
2013-01-21 11:23:00,32.7,11.1,29.97,North,0,0.0,0.0,40,0.00,,---,0.00,VWS V14.01,2013-01-21 16:23:00,
2013-01-21 11:28:00,32.5,10.9,29.97,North,0,0.0,0.0,40,0.00,,---,0.00,VWS V14.01,2013-01-21 16:28:00,
2013-01-21 11:32:00,32.5,10.9,29.97,North,0,0.0,0.0,40,0.00,,---,0.00,VWS V14.01,2013-01-21 16:32:00,
2013-01-21 11:38:00,32.7,11.1,29.97,North,0,0.0,0.0,40,0.00,,---,0.00,VWS V14.01,2013-01-21 16:38:00,
2013-01-21 11:43:00,33.3,11.6,29.97,North,0,0.0,0.0,40,0.00,,---,0.00,VWS V14.01,2013-01-21 16:43:00,
2013-01-21 11:48:00,33.8,12.1,29.94,North,0,0.0,0.0,40,0.00,,---,0.00,VWS V14.01,2013-01-21 16:48:00,
2013-01-21 11:52:00,33.8,12.1,29.94,North,0,0.0,0.0,40,0.00,,---,0.00,VWS V14.01,2013-01-21 16:52:00,
2013-01-21 11:57:00,33.6,11.9,29.94,North,0,0.0,0.0,40,0.00,,---,0.00,VWS V14.01,2013-01-21 16:57:00,
2013-01-21 12:02:00,33.8,12.1,29.94,North,0,0.0,0.0,40,0.00,,---,0.00,VWS V14.01,2013-01-21 17:02:00,
2013-01-21 12:07:00,33.6,11.9,29.94,North,0,0.0,0.0,40,0.00,,---,0.00,VWS V14.01,2013-01-21 17:07:00,
2013-01-21 12:12:00,34.0,12.2,29.94,North,0,0.0,0.0,40,0.00,,---,0.00,VWS V14.01,2013-01-21 17:12:00,
2013-01-21 12:17:00,34.0,12.2,29.94,North,0,0.0,0.0,40,0.00,,---,0.00,VWS V14.01,2013-01-21 17:17:00,
2013-01-21 12:22:00,34.2,12.4,29.94,North,0,0.0,0.0,40,0.00,,---,0.00,VWS V14.01,2013-01-21 17:22:00,
2013-01-21 12:27:00,34.2,12.4,29.94,North,0,0.0,0.0,40,0.00,,---,0.00,VWS V14.01,2013-01-21 17:27:00,
2013-01-21 12:32:00,34.2,12.4,29.91,North,0,0.0,0.0,40,0.00,,---,0.00,VWS V14.01,2013-01-21 17:32:00,
2013-01-21 12:37:00,34.3,12.5,29.91,North,0,0.0,0.0,40,0.00,,---,0.00,VWS V14.01,2013-01-21 17:37:00,
2013-01-21 12:42:00,34.0,12.2,29.91,North,0,0.0,0.0,40,0.00,,---,0.00,VWS V14.01,2013-01-21 17:42:00,
2013-01-21 12:47:00,33.8,12.1,29.91,North,0,0.0,0.0,40,0.00,,---,0.00,VWS V14.01,2013-01-21 17:47:00,
2013-01-21 12:52:00,33.3,11.6,29.91,North,0,0.0,0.0,40,0.00,,---,0.00,VWS V14.01,2013-01-21 17:52:00,
2013-01-21 12:57:00,33.1,11.4,29.91,North,0,0.0,0.0,40,0.00,,---,0.00,VWS V14.01,2013-01-21 17:57:00,
2013-01-21 13:02:00,32.9,11.2,29.91,North,0,0.0,0.0,40,0.00,,---,0.00,VWS V14.01,2013-01-21 18:02:00,
2013-01-21 13:07:00,32.7,11.1,29.91,North,0,0.0,0.0,40,0.00,,---,0.00,VWS V14.01,2013-01-21 18:07:00,
2013-01-21 13:12:00,32.9,11.2,29.91,North,0,0.0,0.0,40,0.00,,---,0.00,VWS V14.01,2013-01-21 18:12:00,
2013-01-21 13:18:00,33.6,11.9,29.91,North,0,0.0,0.0,40,0.00,,---,0.00,VWS V14.01,2013-01-21 18:18:00,
2013-01-21 13:23:00,34.2,12.4,29.91,North,0,0.0,0.0,40,0.00,,---,0.00,VWS V14.01,2013-01-21 18:23:00,
2013-01-21 13:28:00,34.5,12.7,29.91,North,0,0.0,0.0,40,0.00,,---,0.00,VWS V14.01,2013-01-21 18:28:00,
2013-01-21 13:32:00,34.5,12.7,29.88,North,0,0.0,0.0,40,0.00,,---,0.00,VWS V14.01,2013-01-21 18:32:00,
2013-01-21 13:37:00,34.3,12.5,29.88,North,0,0.0,0.0,40,0.00,,---,0.00,VWS V14.01,2013-01-21 18:37:00,
2013-01-21 13:42:00,34.3,12.5,29.88,North,0,0.0,0.0,40,0.00,,---,0.00,VWS V14.01,2013-01-21 18:42:00,
2013-01-21 13:47:00,34.3,12.5,29.88,North,0,0.0,0.0,40,0.00,,---,0.00,VWS V14.01,2013-01-21 18:47:00,
2013-01-21 13:52:00,33.6,11.9,29.88,North,0,0.0,0.0,40,0.00,,---,0.00,VWS V14.01,2013-01-21 18:52:00,
2013-01-21 13:57:00,33.1,11.4,29.88,North,0,0.0,0.0,40,0.00,,---,0.00,VWS V14.01,2013-01-21 18:57:00,
2013-01-21 14:02:00,32.7,11.1,29.88,North,0,0.0,0.0,40,0.00,,---,0.00,VWS V14.01,2013-01-21 19:02:00,
2013-01-21 14:07:00,32.9,11.2,29.88,North,0,0.0,0.0,40,0.00,,---,0.00,VWS V14.01,2013-01-21 19:07:00,
2013-01-21 14:12:00,32.7,11.1,29.88,North,0,0.0,0.0,40,0.00,,---,0.00,VWS V14.01,2013-01-21 19:12:00,
2013-01-21 14:17:00,32.7,11.1,29.88,North,0,0.0,0.0,40,0.00,,---,0.00,VWS V14.01,2013-01-21 19:17:00,
2013-01-21 14:22:00,32.9,11.2,29.88,North,0,0.0,0.0,40,0.00,,---,0.00,VWS V14.01,2013-01-21 19:22:00,
2013-01-21 14:27:00,32.9,11.2,29.88,North,0,0.0,0.0,40,0.00,,---,0.00,VWS V14.01,2013-01-21 19:27:00,
2013-01-21 14:32:00,32.9,11.2,29.85,North,0,0.0,0.0,40,0.00,,---,0.00,VWS V14.01,2013-01-21 19:32:00,
2013-01-21 14:37:00,32.7,11.1,29.85,North,0,0.0,0.0,40,0.00,,---,0.00,VWS V14.01,2013-01-21 19:37:00,
2013-01-21 14:42:00,32.5,10.9,29.85,North,0,0.0,0.0,40,0.00,,---,0.00,VWS V14.01,2013-01-21 19:42:00,
2013-01-21 14:47:00,32.7,11.1,29.85,North,0,0.0,0.0,40,0.00,,---,0.00,VWS V14.01,2013-01-21 19:47:00,
2013-01-21 14:52:00,32.5,10.9,29.85,North,0,0.0,0.0,40,0.00,,---,0.00,VWS V14.01,2013-01-21 19:52:00,
2013-01-21 14:57:00,32.4,10.8,29.85,North,0,0.0,0.0,40,0.00,,---,0.00,VWS V14.01,2013-01-21 19:57:00,
2013-01-21 15:02:00,32.4,10.8,29.85,North,0,0.0,0.0,40,0.00,,---,0.00,VWS V14.01,2013-01-21 20:02:00,
2013-01-21 15:07:00,32.4,10.8,29.85,North,0,0.0,0.0,40,0.00,,---,0.00,VWS V14.01,2013-01-21 20:07:00,
2013-01-21 15:12:00,32.4,10.8,29.85,North,0,0.0,0.0,40,0.00,,---,0.00,VWS V14.01,2013-01-21 20:12:00,
2013-01-21 15:17:00,32.5,10.9,29.83,North,0,0.0,0.0,40,0.00,,---,0.00,VWS V14.01,2013-01-21 20:17:00,
2013-01-21 15:22:00,32.7,11.1,29.83,North,0,0.0,0.0,40,0.00,,---,0.00,VWS V14.01,2013-01-21 20:22:00,
2013-01-21 15:27:00,32.7,11.1,29.83,North,0,0.0,0.0,40,0.00,,---,0.00,VWS V14.01,2013-01-21 20:27:00,
2013-01-21 15:32:00,32.5,10.9,29.83,North,0,0.0,0.0,40,0.00,,---,0.00,VWS V14.01,2013-01-21 20:32:00,
2013-01-21 15:37:00,32.5,10.9,29.83,North,0,0.0,0.0,40,0.00,,---,0.00,VWS V14.01,2013-01-21 20:37:00,
2013-01-21 15:42:00,32.5,10.9,29.83,North,0,0.0,0.0,40,0.00,,---,0.00,VWS V14.01,2013-01-21 20:42:00,
2013-01-21 15:47:00,32.5,10.9,29.83,North,0,0.0,0.0,40,0.00,,---,0.00,VWS V14.01,2013-01-21 20:47:00,
2013-01-21 15:52:00,32.4,10.8,29.83,North,0,0.0,0.0,40,0.00,,---,0.00,VWS V14.01,2013-01-21 20:52:00,
2013-01-21 15:57:00,32.4,10.8,29.83,North,0,0.0,0.0,40,0.00,,---,0.00,VWS V14.01,2013-01-21 20:57:00,
2013-01-21 16:02:00,32.5,10.9,29.83,North,0,0.0,0.0,40,0.00,,---,0.00,VWS V14.01,2013-01-21 21:02:00,
2013-01-21 16:07:00,32.5,10.9,29.83,North,0,0.0,0.0,40,0.00,,---,0.00,VWS V14.01,2013-01-21 21:07:00,
2013-01-21 16:12:00,32.2,10.6,29.83,North,0,0.0,0.0,40,0.00,,---,0.00,VWS V14.01,2013-01-21 21:12:00,
2013-01-21 16:17:00,32.2,10.6,29.80,North,0,0.0,0.0,40,0.00,,---,0.00,VWS V14.01,2013-01-21 21:17:00,
2013-01-21 16:22:00,31.8,10.3,29.80,North,0,0.0,0.0,40,0.00,,---,0.00,VWS V14.01,2013-01-21 21:22:00,
2013-01-21 16:27:00,31.6,10.1,29.80,North,0,0.0,0.0,40,0.00,,---,0.00,VWS V14.01,2013-01-21 21:27:00,
2013-01-21 16:32:00,31.6,10.1,29.80,North,0,0.0,0.0,40,0.00,,---,0.00,VWS V14.01,2013-01-21 21:32:00,
2013-01-21 16:37:00,31.5,9.9,29.80,North,0,0.0,0.0,40,0.00,,---,0.00,VWS V14.01,2013-01-21 21:37:00,
2013-01-21 16:42:00,31.3,9.8,29.80,North,0,0.0,0.0,40,0.00,,---,0.00,VWS V14.01,2013-01-21 21:42:00,
2013-01-21 16:47:00,31.1,9.6,29.80,North,0,0.0,0.0,40,0.00,,---,0.00,VWS V14.01,2013-01-21 21:47:00,
2013-01-21 16:52:00,31.1,9.6,29.80,North,0,0.0,0.0,40,0.00,,---,0.00,VWS V14.01,2013-01-21 21:52:00,
2013-01-21 16:57:00,31.1,9.6,29.80,North,0,0.0,0.0,40,0.00,,---,0.00,VWS V14.01,2013-01-21 21:57:00,
2013-01-21 17:02:00,31.1,9.6,29.83,North,0,0.0,0.0,40,0.00,,---,0.00,VWS V14.01,2013-01-21 22:02:00,
2013-01-21 17:07:00,30.9,9.4,29.83,North,0,0.0,0.0,40,0.00,,---,0.00,VWS V14.01,2013-01-21 22:07:00,
2013-01-21 17:12:00,30.9,9.4,29.83,North,0,0.0,0.0,40,0.00,,---,0.00,VWS V14.01,2013-01-21 22:12:00,
2013-01-21 17:17:00,30.7,9.3,29.80,North,0,0.0,0.0,40,0.00,,---,0.00,VWS V14.01,2013-01-21 22:17:00,
2013-01-21 17:22:00,30.6,9.1,29.80,North,0,0.0,0.0,40,0.00,,---,0.00,VWS V14.01,2013-01-21 22:22:00,
2013-01-21 17:27:00,30.6,9.1,29.80,North,0,0.0,0.0,40,0.00,,---,0.00,VWS V14.01,2013-01-21 22:27:00,
2013-01-21 17:32:00,30.4,9.0,29.80,North,0,0.0,0.0,40,0.00,,---,0.00,VWS V14.01,2013-01-21 22:32:00,
2013-01-21 17:37:00,30.4,9.0,29.80,North,0,0.0,0.0,40,0.00,,---,0.00,VWS V14.01,2013-01-21 22:37:00,
2013-01-21 17:42:00,30.2,9.4,29.80,North,0,0.0,0.0,41,0.00,,---,0.00,VWS V14.01,2013-01-21 22:42:00,
2013-01-21 17:47:00,30.4,9.0,29.80,North,0,0.0,0.0,40,0.00,,---,0.00,VWS V14.01,2013-01-21 22:47:00,
2013-01-21 17:52:00,30.4,9.0,29.80,North,0,0.0,0.0,40,0.00,,---,0.00,VWS V14.01,2013-01-21 22:52:00,
2013-01-21 17:57:00,30.4,9.0,29.80,North,0,0.0,0.0,40,0.00,,---,0.00,VWS V14.01,2013-01-21 22:57:00,
2013-01-21 18:02:00,30.4,9.0,29.80,North,0,0.0,0.0,40,0.00,,---,0.00,VWS V14.01,2013-01-21 23:02:00,
2013-01-21 18:07:00,30.4,9.0,29.80,North,0,0.0,0.0,40,0.00,,---,0.00,VWS V14.01,2013-01-21 23:07:00,
2013-01-21 18:12:00,30.6,9.1,29.80,North,0,0.0,0.0,40,0.00,,---,0.00,VWS V14.01,2013-01-21 23:12:00,
2013-01-21 18:17:00,30.4,9.0,29.80,North,0,0.0,0.0,40,0.00,,---,0.00,VWS V14.01,2013-01-21 23:17:00,
2013-01-21 18:22:00,30.4,9.0,29.80,North,0,0.0,0.0,40,0.00,,---,0.00,VWS V14.01,2013-01-21 23:22:00,
2013-01-21 18:27:00,30.6,9.1,29.80,North,0,0.0,0.0,40,0.00,,---,0.00,VWS V14.01,2013-01-21 23:27:00,
2013-01-21 18:32:00,30.4,9.0,29.80,North,0,0.0,0.0,40,0.00,,---,0.00,VWS V14.01,2013-01-21 23:32:00,
2013-01-21 18:37:00,30.6,9.1,29.80,North,0,0.0,0.0,40,0.00,,---,0.00,VWS V14.01,2013-01-21 23:37:00,
2013-01-21 18:42:00,30.6,9.1,29.80,North,0,0.0,0.0,40,0.00,,---,0.00,VWS V14.01,2013-01-21 23:42:00,
2013-01-21 18:47:00,30.6,9.1,29.80,North,0,0.0,0.0,40,0.00,,---,0.00,VWS V14.01,2013-01-21 23:47:00,
2013-01-21 18:52:00,30.6,9.1,29.80,North,0,0.0,0.0,40,0.00,,---,0.00,VWS V14.01,2013-01-21 23:52:00,
2013-01-21 18:57:00,30.6,9.1,29.80,North,0,0.0,0.0,40,0.00,,---,0.00,VWS V14.01,2013-01-21 23:57:00,
2013-01-21 19:02:00,30.4,9.0,29.80,North,0,0.0,0.0,40,0.00,,---,0.00,VWS V14.01,2013-01-22 00:02:00,
2013-01-21 19:07:00,30.0,9.2,29.80,North,0,0.0,0.0,41,0.00,,---,0.00,VWS V14.01,2013-01-22 00:07:00,
2013-01-21 19:12:00,29.5,8.7,29.80,North,0,0.0,0.0,41,0.00,,---,0.00,VWS V14.01,2013-01-22 00:12:00,
2013-01-21 19:17:00,28.8,8.0,29.80,North,0,0.0,0.0,41,0.00,,---,0.00,VWS V14.01,2013-01-22 00:17:00,
2013-01-21 19:22:00,28.6,7.9,29.80,North,0,0.0,0.0,41,0.00,,---,0.00,VWS V14.01,2013-01-22 00:22:00,
2013-01-21 19:27:00,28.2,8.1,29.80,North,0,0.0,0.0,42,0.00,,---,0.00,VWS V14.01,2013-01-22 00:27:00,
2013-01-21 19:32:00,27.9,7.8,29.80,North,0,0.0,0.0,42,0.00,,---,0.00,VWS V14.01,2013-01-22 00:32:00,
2013-01-21 19:37:00,28.0,7.9,29.80,North,0,0.0,0.0,42,0.00,,---,0.00,VWS V14.01,2013-01-22 00:37:00,
2013-01-21 19:42:00,28.0,7.9,29.80,North,0,0.0,0.0,42,0.00,,---,0.00,VWS V14.01,2013-01-22 00:42:00,
2013-01-21 19:47:00,28.0,7.9,29.80,North,0,0.0,0.0,42,0.00,,---,0.00,VWS V14.01,2013-01-22 00:47:00,
2013-01-21 19:52:00,28.0,7.9,29.80,North,0,0.0,0.0,42,0.00,,---,0.00,VWS V14.01,2013-01-22 00:52:00,
2013-01-21 19:57:00,28.0,7.9,29.80,North,0,0.0,0.0,42,0.00,,---,0.00,VWS V14.01,2013-01-22 00:57:00,
2013-01-21 20:02:00,28.0,7.9,29.83,North,0,0.0,0.0,42,0.00,,---,0.00,VWS V14.01,2013-01-22 01:02:00,
2013-01-21 20:07:00,28.2,8.1,29.83,North,0,0.0,0.0,42,0.00,,---,0.00,VWS V14.01,2013-01-22 01:07:00,
2013-01-21 20:12:00,28.4,8.2,29.83,North,0,0.0,0.0,42,0.00,,---,0.00,VWS V14.01,2013-01-22 01:12:00,
2013-01-21 20:17:00,28.0,7.9,29.83,North,0,0.0,0.0,42,0.00,,---,0.00,VWS V14.01,2013-01-22 01:17:00,
2013-01-21 20:22:00,28.2,7.6,29.83,North,0,0.0,0.0,41,0.00,,---,0.00,VWS V14.01,2013-01-22 01:22:00,
2013-01-21 20:27:00,28.2,7.6,29.83,North,0,0.0,0.0,41,0.00,,---,0.00,VWS V14.01,2013-01-22 01:27:00,
2013-01-21 20:32:00,28.2,7.6,29.80,North,0,0.0,0.0,41,0.00,,---,0.00,VWS V14.01,2013-01-22 01:32:00,
2013-01-21 20:37:00,28.6,7.9,29.80,North,0,0.0,0.0,41,0.00,,---,0.00,VWS V14.01,2013-01-22 01:37:00,
2013-01-21 20:42:00,28.4,7.7,29.80,North,0,0.0,0.0,41,0.00,,---,0.00,VWS V14.01,2013-01-22 01:42:00,
2013-01-21 20:47:00,28.4,7.7,29.80,North,0,0.0,0.0,41,0.00,,---,0.00,VWS V14.01,2013-01-22 01:47:00,
2013-01-21 20:52:00,28.4,7.7,29.80,North,0,0.0,0.0,41,0.00,,---,0.00,VWS V14.01,2013-01-22 01:52:00,
2013-01-21 20:57:00,28.2,7.6,29.80,North,0,0.0,0.0,41,0.00,,---,0.00,VWS V14.01,2013-01-22 01:57:00,
2013-01-21 21:02:00,28.4,7.7,29.80,North,0,0.0,0.0,41,0.00,,---,0.00,VWS V14.01,2013-01-22 02:02:00,
2013-01-21 21:07:00,28.2,7.6,29.80,North,0,0.0,0.0,41,0.00,,---,0.00,VWS V14.01,2013-01-22 02:07:00,
2013-01-21 21:12:00,28.0,7.4,29.80,North,0,0.0,0.0,41,0.00,,---,0.00,VWS V14.01,2013-01-22 02:12:00,
2013-01-21 21:17:00,28.2,7.6,29.80,North,0,0.0,0.0,41,0.00,,---,0.00,VWS V14.01,2013-01-22 02:17:00,
2013-01-21 21:22:00,28.2,7.6,29.80,North,0,0.0,0.0,41,0.00,,---,0.00,VWS V14.01,2013-01-22 02:22:00,
2013-01-21 21:27:00,28.0,7.4,29.80,North,0,0.0,0.0,41,0.00,,---,0.00,VWS V14.01,2013-01-22 02:27:00,
2013-01-21 21:32:00,28.2,7.6,29.80,North,0,0.0,0.0,41,0.00,,---,0.00,VWS V14.01,2013-01-22 02:32:00,
2013-01-21 21:37:00,28.0,7.4,29.80,North,0,0.0,0.0,41,0.00,,---,0.00,VWS V14.01,2013-01-22 02:37:00,
2013-01-21 21:42:00,28.0,7.4,29.80,North,0,0.0,0.0,41,0.00,,---,0.00,VWS V14.01,2013-01-22 02:42:00,
2013-01-21 21:47:00,27.7,7.1,29.80,North,0,0.0,0.0,41,0.00,,---,0.00,VWS V14.01,2013-01-22 02:47:00,
2013-01-21 21:52:00,27.3,6.7,29.80,North,0,0.0,0.0,41,0.00,,---,0.00,VWS V14.01,2013-01-22 02:52:00,
2013-01-21 21:57:00,27.1,6.6,29.80,North,0,0.0,0.0,41,0.00,,---,0.00,VWS V14.01,2013-01-22 02:57:00,
2013-01-21 22:02:00,26.8,6.2,29.80,North,0,0.0,0.0,41,0.00,,---,0.00,VWS V14.01,2013-01-22 03:02:00,
2013-01-21 22:07:00,26.4,6.4,29.80,North,0,0.0,0.0,42,0.00,,---,0.00,VWS V14.01,2013-01-22 03:07:00,
2013-01-21 22:12:00,26.4,6.4,29.80,North,0,0.0,0.0,42,0.00,,---,0.00,VWS V14.01,2013-01-22 03:12:00,
2013-01-21 22:17:00,26.6,6.6,29.80,North,0,0.0,0.0,42,0.00,,---,0.00,VWS V14.01,2013-01-22 03:17:00,
2013-01-21 22:22:00,26.1,6.1,29.80,North,0,0.0,0.0,42,0.00,,---,0.00,VWS V14.01,2013-01-22 03:22:00,
2013-01-21 22:27:00,26.1,6.1,29.80,North,0,0.0,0.0,42,0.00,,---,0.00,VWS V14.01,2013-01-22 03:27:00,
2013-01-21 22:32:00,25.9,6.0,29.80,North,0,0.0,0.0,42,0.00,,---,0.00,VWS V14.01,2013-01-22 03:32:00,
2013-01-21 22:37:00,25.7,5.8,29.80,North,0,0.0,0.0,42,0.00,,---,0.00,VWS V14.01,2013-01-22 03:37:00,
2013-01-21 22:42:00,25.3,5.5,29.80,North,0,0.0,0.0,42,0.00,,---,0.00,VWS V14.01,2013-01-22 03:42:00,
2013-01-21 22:47:00,25.3,5.5,29.80,North,0,0.0,0.0,42,0.00,,---,0.00,VWS V14.01,2013-01-22 03:47:00,
2013-01-21 22:52:00,24.8,5.0,29.80,North,0,0.0,0.0,42,0.00,,---,0.00,VWS V14.01,2013-01-22 03:52:00,
2013-01-21 22:57:00,24.8,5.0,29.80,North,0,0.0,0.0,42,0.00,,---,0.00,VWS V14.01,2013-01-22 03:57:00,
2013-01-21 23:02:00,25.2,5.3,29.80,North,0,0.0,0.0,42,0.00,,---,0.00,VWS V14.01,2013-01-22 04:02:00,
2013-01-21 23:07:00,24.8,5.0,29.80,North,0,0.0,0.0,42,0.00,,---,0.00,VWS V14.01,2013-01-22 04:07:00,
2013-01-21 23:12:00,24.8,5.0,29.80,North,0,0.0,0.0,42,0.00,,---,0.00,VWS V14.01,2013-01-22 04:12:00,
2013-01-21 23:17:00,24.6,4.8,29.80,North,0,0.0,0.0,42,0.00,,---,0.00,VWS V14.01,2013-01-22 04:17:00,
2013-01-21 23:22:00,24.6,4.8,29.80,North,0,0.0,0.0,42,0.00,,---,0.00,VWS V14.01,2013-01-22 04:22:00,
2013-01-21 23:27:00,24.6,4.8,29.80,North,0,0.0,0.0,42,0.00,,---,0.00,VWS V14.01,2013-01-22 04:27:00,
2013-01-21 23:32:00,24.4,4.7,29.80,North,0,0.0,0.0,42,0.00,,---,0.00,VWS V14.01,2013-01-22 04:32:00,
2013-01-21 23:37:00,24.3,4.5,29.80,North,0,0.0,0.0,42,0.00,,---,0.00,VWS V14.01,2013-01-22 04:37:00,
2013-01-21 23:42:00,24.6,4.8,29.80,North,0,0.0,0.0,42,0.00,,---,0.00,VWS V14.01,2013-01-22 04:42:00,
2013-01-21 23:47:00,24.4,4.7,29.80,North,0,0.0,0.0,42,0.00,,---,0.00,VWS V14.01,2013-01-22 04:47:00,
2013-01-21 23:52:00,24.3,4.5,29.80,North,0,0.0,0.0,42,0.00,,---,0.00,VWS V14.01,2013-01-22 04:52:00,
2013-01-21 23:57:00,24.1,4.3,29.80,North,0,0.0,0.0,42,0.00,,---,0.00,VWS V14.01,2013-01-22 04:57:00,